Witting, Texas
Current Conditions -  °F | °C
As of 11:10 AM on Sunday 21 Dec 2014 (Local Time) from K3T5 Reporting Station
Overcast Overcast  
Wind Chill: 55°   Ceiling: 1300
Heat Index: 55°   Visibility: 10mi
Dew Point: 50°   Wind: 3mph
Humidity: 84%   Direction: 160°SSE
Pressure: 30.08"   Gusts: NA
Location:  29.5667°N, 97.0723°W
Report Text: K3T5 211710Z AUTO 16003KT 10SM OVC013 13/10 A3008 RMK AO2 T01250099
Loading
Personal Weather Stations






























Interactive Weather Map New forecast layout! Learn more

10-Day Weather Forecast

Advertisements
Track Severe Weather on mobile